createdAt,value
2019-03-18T00:00:57.315Z,0.00
2019-03-18T00:01:57.326Z,0.00
2019-03-18T00:02:57.332Z,0.00
2019-03-18T00:03:57.344Z,0.00
2019-03-18T00:04:57.363Z,0.00
2019-03-18T00:05:57.370Z,0.00
2019-03-18T00:06:57.373Z,0.00
2019-03-18T00:07:57.383Z,0.00
2019-03-18T00:08:57.391Z,0.00
2019-03-18T00:09:57.396Z,0.00
2019-03-18T00:10:57.403Z,0.00
2019-03-18T00:11:57.421Z,0.00
2019-03-18T00:12:57.432Z,0.00
2019-03-18T00:13:57.437Z,0.00
2019-03-18T00:15:01.590Z,0.00
2019-03-18T00:15:57.455Z,0.00
2019-03-18T00:16:57.464Z,0.00
2019-03-18T00:17:57.487Z,0.00
2019-03-18T00:18:57.484Z,0.00
2019-03-18T00:19:57.491Z,0.00
2019-03-18T00:20:57.499Z,0.00
2019-03-18T00:21:57.515Z,0.00
2019-03-18T00:22:57.516Z,0.00
2019-03-18T00:23:57.529Z,0.00
2019-03-18T00:24:57.541Z,0.00
2019-03-18T00:25:57.549Z,0.00
2019-03-18T00:26:57.558Z,0.00
2019-03-18T00:27:57.567Z,0.00
2019-03-18T00:28:57.578Z,0.00
2019-03-18T00:29:57.587Z,0.00
2019-03-18T00:30:57.597Z,0.00
2019-03-18T00:31:57.605Z,0.00
2019-03-18T00:32:57.614Z,0.00
2019-03-18T00:33:57.626Z,0.00
2019-03-18T00:34:57.637Z,0.00
2019-03-18T00:35:57.641Z,0.00
2019-03-18T00:36:57.650Z,0.00
2019-03-18T00:37:57.661Z,0.00
2019-03-18T00:38:57.669Z,0.00
2019-03-18T00:39:57.681Z,0.00
2019-03-18T00:40:57.685Z,0.00
2019-03-18T00:41:57.697Z,0.00
2019-03-18T00:42:57.701Z,0.00
2019-03-18T00:43:57.717Z,0.00
2019-03-18T00:44:57.725Z,0.00
2019-03-18T00:45:57.733Z,0.00
2019-03-18T00:46:57.743Z,0.00
2019-03-18T00:47:57.755Z,0.00
2019-03-18T00:48:57.765Z,0.00
2019-03-18T00:49:57.775Z,0.00
2019-03-18T00:50:57.781Z,0.00
2019-03-18T00:51:57.792Z,0.00
2019-03-18T00:52:57.800Z,0.00
2019-03-18T00:53:57.816Z,0.00
2019-03-18T00:54:58.484Z,0.00
2019-03-18T00:55:57.830Z,0.00
2019-03-18T00:56:57.833Z,0.00
2019-03-18T00:57:57.844Z,0.00
2019-03-18T00:58:57.877Z,0.00
2019-03-18T00:59:57.864Z,0.00
2019-03-18T01:00:57.885Z,0.00
2019-03-18T01:01:57.878Z,0.00
2019-03-18T01:02:57.894Z,0.00
2019-03-18T01:03:57.901Z,0.00
2019-03-18T01:04:58.026Z,0.00
2019-03-18T01:05:57.924Z,0.00
2019-03-18T01:06:58.482Z,0.00
2019-03-18T01:07:57.937Z,0.00
2019-03-18T01:08:57.941Z,0.00
2019-03-18T01:09:57.962Z,0.00
2019-03-18T01:10:58.021Z,0.00
2019-03-18T01:11:57.986Z,0.00
2019-03-18T01:12:57.999Z,0.00
2019-03-18T01:13:57.993Z,0.00
2019-03-18T01:14:58.009Z,0.00
2019-03-18T01:15:58.015Z,0.00
2019-03-18T01:16:58.021Z,0.00
2019-03-18T01:17:58.028Z,0.00
2019-03-18T01:18:58.035Z,0.00
2019-03-18T01:19:58.047Z,0.00
2019-03-18T01:20:58.058Z,0.00
2019-03-18T01:21:58.066Z,0.00
2019-03-18T01:22:58.085Z,0.00
2019-03-18T01:23:58.088Z,0.00
2019-03-18T01:24:58.094Z,0.00
2019-03-18T01:25:58.105Z,0.00
2019-03-18T01:26:58.113Z,0.00
2019-03-18T01:27:58.123Z,0.00
2019-03-18T01:28:58.130Z,0.00
2019-03-18T01:29:58.141Z,0.00
2019-03-18T01:30:58.151Z,0.00
2019-03-18T01:31:58.155Z,0.00
2019-03-18T01:32:58.165Z,0.00
2019-03-18T01:33:58.176Z,0.00
2019-03-18T01:34:58.187Z,0.00
2019-03-18T01:35:58.192Z,0.00
2019-03-18T01:36:58.209Z,0.00
2019-03-18T01:37:58.209Z,0.00
2019-03-18T01:38:58.219Z,0.00
2019-03-18T01:39:58.236Z,0.00
2019-03-18T01:40:58.249Z,0.00
2019-03-18T01:41:58.249Z,0.00
2019-03-18T01:42:58.260Z,0.00
2019-03-18T01:43:58.266Z,0.00
2019-03-18T01:44:58.278Z,0.00
2019-03-18T01:45:58.286Z,0.00
2019-03-18T01:46:58.296Z,0.00
2019-03-18T01:47:58.302Z,0.00
2019-03-18T01:48:58.321Z,0.00
2019-03-18T01:49:58.327Z,0.00
2019-03-18T01:50:58.330Z,0.00
2019-03-18T01:51:58.328Z,0.00
2019-03-18T01:52:58.348Z,0.00
2019-03-18T01:53:58.346Z,0.00
2019-03-18T01:54:58.366Z,0.00
2019-03-18T01:55:58.374Z,0.00
2019-03-18T01:56:58.391Z,0.00
2019-03-18T01:57:58.404Z,0.00
2019-03-18T01:58:58.409Z,0.00
2019-03-18T01:59:58.984Z,0.00
2019-03-18T02:00:58.426Z,0.00
2019-03-18T02:01:58.442Z,0.00
2019-03-18T02:02:58.439Z,0.00
2019-03-18T02:03:58.460Z,0.00
2019-03-18T02:04:58.458Z,0.00
2019-03-18T02:05:58.488Z,0.00
2019-03-18T02:06:58.482Z,0.00
2019-03-18T02:07:58.496Z,0.00
2019-03-18T02:08:58.492Z,0.00
2019-03-18T02:09:58.520Z,0.00
2019-03-18T02:10:58.517Z,0.00
2019-03-18T02:11:58.527Z,0.00
2019-03-18T02:12:58.534Z,0.00
2019-03-18T02:13:58.564Z,0.00
2019-03-18T02:14:58.558Z,0.00
2019-03-18T02:15:58.558Z,0.00
2019-03-18T02:16:58.569Z,0.00
2019-03-18T02:17:58.578Z,0.00
2019-03-18T02:18:58.585Z,0.00
2019-03-18T02:19:58.601Z,0.00
2019-03-18T02:20:58.604Z,0.00
2019-03-18T02:21:58.611Z,0.00
2019-03-18T02:22:58.622Z,0.00
2019-03-18T02:23:58.631Z,0.00
2019-03-18T02:24:58.644Z,0.00
2019-03-18T02:25:58.653Z,0.00
2019-03-18T02:26:58.659Z,0.00
2019-03-18T02:27:58.667Z,0.00
2019-03-18T02:28:58.677Z,0.00
2019-03-18T02:29:58.687Z,0.00
2019-03-18T02:30:58.695Z,0.00
2019-03-18T02:31:58.717Z,0.00
2019-03-18T02:32:58.713Z,0.00
2019-03-18T02:33:58.721Z,0.00
2019-03-18T02:34:58.727Z,0.00
2019-03-18T02:35:58.742Z,0.00
2019-03-18T02:36:58.761Z,0.00
2019-03-18T02:37:58.764Z,0.00
2019-03-18T02:38:58.763Z,0.00
2019-03-18T02:39:58.775Z,0.00
2019-03-18T02:40:58.786Z,0.00
2019-03-18T02:41:58.794Z,0.00
2019-03-18T02:42:58.804Z,0.00
2019-03-18T02:43:58.818Z,0.00
2019-03-18T02:44:58.821Z,0.00
2019-03-18T02:46:10.188Z,0.00
2019-03-18T02:46:58.839Z,0.00
2019-03-18T02:47:58.853Z,0.00
2019-03-18T02:48:58.860Z,0.00
2019-03-18T02:49:58.884Z,0.00
2019-03-18T02:50:58.874Z,0.00
2019-03-18T02:51:58.887Z,0.00
2019-03-18T02:52:58.897Z,0.00
2019-03-18T02:53:58.905Z,0.00
2019-03-18T02:54:58.911Z,0.00
2019-03-18T02:55:58.931Z,0.00
2019-03-18T02:56:58.961Z,0.00
2019-03-18T02:57:58.955Z,0.00
2019-03-18T02:58:58.949Z,0.00
2019-03-18T02:59:58.960Z,0.00
2019-03-18T03:00:58.981Z,0.00
2019-03-18T03:01:58.974Z,0.00
2019-03-18T03:02:58.997Z,0.00
2019-03-18T03:03:58.993Z,0.00
2019-03-18T03:04:59.003Z,0.00
2019-03-18T03:05:59.014Z,0.00
2019-03-18T03:06:59.024Z,0.00
2019-03-18T03:07:59.033Z,0.00
2019-03-18T03:08:59.041Z,0.00
2019-03-18T03:09:59.063Z,0.00
2019-03-18T03:10:59.172Z,0.00
2019-03-18T03:11:59.069Z,0.00
2019-03-18T03:12:59.077Z,0.00
2019-03-18T03:13:59.097Z,0.00
2019-03-18T03:14:59.095Z,0.00
2019-03-18T03:15:59.107Z,0.00
2019-03-18T03:16:59.124Z,0.00
2019-03-18T03:17:59.133Z,0.00
2019-03-18T03:18:59.125Z,0.00
2019-03-18T03:19:59.135Z,0.00
2019-03-18T03:20:59.145Z,0.00
2019-03-18T03:21:59.156Z,0.00
2019-03-18T03:22:59.167Z,0.00
2019-03-18T03:23:59.179Z,0.00
2019-03-18T03:24:59.182Z,0.00
2019-03-18T03:25:59.195Z,0.00
2019-03-18T03:26:59.205Z,0.00
2019-03-18T03:27:59.214Z,0.00
2019-03-18T03:28:59.220Z,0.00
2019-03-18T03:29:59.233Z,0.00
2019-03-18T03:30:59.244Z,0.00
2019-03-18T03:31:59.247Z,0.00
2019-03-18T03:32:59.264Z,0.00
2019-03-18T03:33:59.269Z,0.00
2019-03-18T03:34:59.273Z,0.00
2019-03-18T03:35:59.289Z,0.00
2019-03-18T03:36:59.297Z,0.00
2019-03-18T03:37:59.306Z,0.00
2019-03-18T03:38:59.309Z,0.00
2019-03-18T03:39:59.321Z,0.00
2019-03-18T03:40:59.332Z,0.00
2019-03-18T03:41:59.334Z,0.00
2019-03-18T03:42:59.349Z,0.00
2019-03-18T03:43:59.356Z,0.00
2019-03-18T03:44:59.366Z,0.00
2019-03-18T03:45:59.375Z,0.00
2019-03-18T03:46:59.414Z,0.00
2019-03-18T03:47:59.395Z,0.00
2019-03-18T03:48:59.409Z,0.00
2019-03-18T03:49:59.422Z,0.00
2019-03-18T03:50:59.421Z,0.00
2019-03-18T03:51:59.427Z,0.00
2019-03-18T03:52:59.433Z,0.00
2019-03-18T03:53:59.447Z,0.00
2019-03-18T03:54:59.450Z,0.00
2019-03-18T03:55:59.464Z,0.00
2019-03-18T03:56:59.479Z,0.00
2019-03-18T03:57:59.487Z,0.00
2019-03-18T03:58:59.489Z,0.00
2019-03-18T03:59:59.502Z,0.00
2019-03-18T04:00:59.517Z,0.00
2019-03-18T04:01:59.524Z,0.00
2019-03-18T04:02:59.528Z,0.00
2019-03-18T04:03:59.536Z,0.00
2019-03-18T04:04:59.547Z,0.00
2019-03-18T04:05:59.555Z,0.00
2019-03-18T04:06:59.557Z,0.00
2019-03-18T04:07:59.580Z,0.00
2019-03-18T04:08:59.614Z,0.00
2019-03-18T04:09:59.589Z,0.00
2019-03-18T04:10:59.598Z,0.00
2019-03-18T04:11:59.603Z,0.00
2019-03-18T04:12:59.613Z,0.00
2019-03-18T04:13:59.623Z,0.00
2019-03-18T04:14:59.633Z,0.00
2019-03-18T04:15:59.643Z,0.00
2019-03-18T04:17:02.278Z,0.00
2019-03-18T04:17:59.668Z,0.00
2019-03-18T04:18:59.669Z,0.00
2019-03-18T04:19:59.675Z,0.00
2019-03-18T04:20:59.686Z,0.00
2019-03-18T04:21:59.699Z,0.00
2019-03-18T04:22:59.704Z,0.00
2019-03-18T04:23:59.714Z,0.00
2019-03-18T04:24:59.724Z,0.00
2019-03-18T04:25:59.733Z,0.00
2019-03-18T04:26:59.742Z,0.00
2019-03-18T04:27:59.754Z,0.00
2019-03-18T04:28:59.760Z,0.00
2019-03-18T04:29:59.772Z,0.00
2019-03-18T04:30:59.785Z,0.00
2019-03-18T04:31:59.788Z,0.00
2019-03-18T04:32:59.797Z,0.00
2019-03-18T04:33:59.803Z,0.00
2019-03-18T04:34:59.811Z,0.00
2019-03-18T04:35:59.827Z,0.00
2019-03-18T04:36:59.831Z,0.00
2019-03-18T04:37:59.842Z,0.00
2019-03-18T04:38:59.861Z,0.00
2019-03-18T04:39:59.870Z,0.00
2019-03-18T04:40:59.868Z,0.00
2019-03-18T04:41:59.890Z,0.00
2019-03-18T04:42:59.889Z,0.00
2019-03-18T04:43:59.899Z,0.00
2019-03-18T04:44:59.901Z,0.00
2019-03-18T04:45:59.915Z,0.00
2019-03-18T04:47:00.499Z,0.00
2019-03-18T04:47:59.935Z,0.00
2019-03-18T04:48:59.943Z,0.00
2019-03-18T04:49:59.960Z,0.00
2019-03-18T04:50:59.972Z,0.00
2019-03-18T04:51:59.967Z,0.00
2019-03-18T04:53:00.105Z,0.00
2019-03-18T04:53:59.992Z,0.00
2019-03-18T04:55:00.005Z,0.00
2019-03-18T04:56:00.011Z,0.00
2019-03-18T04:57:00.015Z,0.00
2019-03-18T04:58:00.025Z,0.00
2019-03-18T04:59:00.053Z,0.00
2019-03-18T05:00:00.045Z,0.00
2019-03-18T05:01:00.067Z,0.00
2019-03-18T05:02:00.066Z,0.00
2019-03-18T05:03:00.089Z,0.00
2019-03-18T05:04:00.089Z,0.00
2019-03-18T05:05:00.117Z,0.00
2019-03-18T05:06:00.107Z,0.00
2019-03-18T05:07:00.115Z,0.00
2019-03-18T05:08:00.127Z,0.00
2019-03-18T05:09:00.130Z,0.00
2019-03-18T05:10:00.347Z,0.00
2019-03-18T05:11:00.151Z,0.00
2019-03-18T05:12:00.160Z,0.00
2019-03-18T05:13:00.170Z,0.00
2019-03-18T05:14:00.183Z,0.00
2019-03-18T05:15:00.358Z,0.00
2019-03-18T05:16:00.194Z,0.00
2019-03-18T05:17:00.204Z,0.00
2019-03-18T05:18:00.223Z,0.00
2019-03-18T05:19:00.225Z,0.00
2019-03-18T05:20:00.387Z,0.00
2019-03-18T05:21:00.243Z,0.00
2019-03-18T05:22:00.256Z,0.00
2019-03-18T05:23:00.258Z,0.00
2019-03-18T05:24:00.274Z,0.00
2019-03-18T05:25:00.338Z,0.00
2019-03-18T05:26:00.292Z,0.00
2019-03-18T05:27:00.308Z,0.00
2019-03-18T05:28:00.309Z,0.00
2019-03-18T05:29:00.315Z,0.00
2019-03-18T05:30:00.390Z,0.00
2019-03-18T05:31:00.335Z,0.00
2019-03-18T05:32:00.349Z,0.00
2019-03-18T05:33:00.359Z,0.00
2019-03-18T05:34:00.372Z,0.00
2019-03-18T05:35:00.396Z,0.00
2019-03-18T05:36:00.387Z,0.00
2019-03-18T05:37:00.396Z,0.00
2019-03-18T05:38:00.406Z,0.00
2019-03-18T05:39:00.420Z,0.00
2019-03-18T05:40:00.496Z,0.00
2019-03-18T05:41:00.433Z,0.00
2019-03-18T05:42:00.445Z,0.00
2019-03-18T05:43:00.452Z,0.00
2019-03-18T05:44:00.531Z,0.00
2019-03-18T05:45:00.483Z,0.00
2019-03-18T05:46:00.489Z,0.00
2019-03-18T05:47:00.493Z,0.00
2019-03-18T05:48:00.506Z,5.63
2019-03-18T05:49:00.502Z,5.63
2019-03-18T05:50:00.530Z,5.63
2019-03-18T05:51:00.523Z,5.63
2019-03-18T05:52:00.615Z,5.63
2019-03-18T05:53:00.541Z,5.63
2019-03-18T05:54:00.618Z,5.63
2019-03-18T05:55:00.565Z,5.63
2019-03-18T05:56:00.572Z,5.63
2019-03-18T05:57:00.581Z,5.63
2019-03-18T05:58:00.599Z,5.63
2019-03-18T05:59:00.600Z,5.63
2019-03-18T06:00:00.660Z,5.63
2019-03-18T06:01:00.619Z,5.63
2019-03-18T06:02:00.639Z,5.63
2019-03-18T06:03:00.649Z,5.63
2019-03-18T06:04:00.657Z,5.63
2019-03-18T06:05:00.663Z,5.63
2019-03-18T06:06:00.675Z,11.25
2019-03-18T06:07:00.684Z,11.25
2019-03-18T06:08:00.687Z,11.25
2019-03-18T06:09:00.700Z,11.25
2019-03-18T06:10:00.705Z,11.25
2019-03-18T06:11:00.716Z,11.25
2019-03-18T06:12:00.721Z,16.88
2019-03-18T06:13:00.737Z,22.50
2019-03-18T06:14:00.754Z,22.50
2019-03-18T06:15:00.749Z,22.50
2019-03-18T06:16:00.761Z,28.13
2019-03-18T06:17:00.775Z,33.75
2019-03-18T06:18:00.779Z,33.75
2019-03-18T06:19:00.789Z,33.75
2019-03-18T06:20:00.799Z,39.38
2019-03-18T06:21:00.815Z,45.00
2019-03-18T06:22:00.814Z,50.63
2019-03-18T06:23:00.825Z,56.25
2019-03-18T06:24:00.834Z,67.50
2019-03-18T06:25:00.849Z,67.50
2019-03-18T06:26:00.853Z,73.13
2019-03-18T06:27:00.863Z,73.13
2019-03-18T06:28:00.880Z,78.75
2019-03-18T06:29:00.881Z,90.00
2019-03-18T06:30:00.893Z,84.38
2019-03-18T06:31:00.905Z,67.50
2019-03-18T06:32:00.911Z,61.88
2019-03-18T06:33:00.921Z,61.88
2019-03-18T06:34:00.934Z,61.88
2019-03-18T06:35:00.941Z,67.50
2019-03-18T06:36:00.952Z,73.13
2019-03-18T06:37:00.975Z,78.75
2019-03-18T06:38:00.972Z,90.00
2019-03-18T06:39:00.980Z,90.00
2019-03-18T06:40:00.992Z,78.75
2019-03-18T06:41:01.001Z,90.00
2019-03-18T06:42:01.008Z,84.38
2019-03-18T06:43:01.016Z,78.75
2019-03-18T06:44:01.028Z,73.13
2019-03-18T06:45:01.034Z,67.50
2019-03-18T06:46:01.047Z,50.63
2019-03-18T06:47:01.055Z,39.38
2019-03-18T06:48:05.175Z,39.38
2019-03-18T06:49:01.080Z,33.75
2019-03-18T06:50:01.087Z,28.13
2019-03-18T06:51:01.096Z,28.13
2019-03-18T06:52:01.114Z,22.50
2019-03-18T06:53:01.115Z,28.13
2019-03-18T06:54:01.127Z,33.75
2019-03-18T06:55:01.131Z,39.38
2019-03-18T06:56:01.141Z,45.00
2019-03-18T06:57:01.148Z,50.63
2019-03-18T06:58:01.158Z,61.88
2019-03-18T06:59:01.169Z,61.88
2019-03-18T07:00:01.181Z,73.13
2019-03-18T07:01:01.188Z,95.63
2019-03-18T07:02:01.203Z,135.00
2019-03-18T07:03:01.216Z,202.50
2019-03-18T07:04:01.216Z,230.63
2019-03-18T07:05:01.226Z,258.75
2019-03-18T07:06:01.241Z,303.75
2019-03-18T07:07:01.252Z,303.75
2019-03-18T07:08:01.263Z,298.13
2019-03-18T07:09:01.271Z,281.25
2019-03-18T07:10:01.281Z,258.75
2019-03-18T07:11:01.290Z,241.88
2019-03-18T07:12:01.295Z,202.50
2019-03-18T07:13:01.320Z,191.25
2019-03-18T07:14:01.323Z,185.63
2019-03-18T07:15:01.329Z,168.75
2019-03-18T07:16:01.338Z,157.50
2019-03-18T07:17:01.349Z,146.25
2019-03-18T07:18:01.359Z,140.63
2019-03-18T07:19:01.368Z,140.63
2019-03-18T07:20:01.381Z,146.25
2019-03-18T07:21:01.390Z,151.88
2019-03-18T07:22:01.395Z,151.88
2019-03-18T07:23:01.410Z,151.88
2019-03-18T07:24:01.418Z,157.50
2019-03-18T07:25:01.427Z,151.88
2019-03-18T07:26:01.437Z,168.75
2019-03-18T07:27:01.447Z,168.75
2019-03-18T07:28:01.462Z,168.75
2019-03-18T07:29:01.468Z,174.38
2019-03-18T07:30:01.478Z,185.63
2019-03-18T07:31:01.490Z,191.25
2019-03-18T07:32:01.498Z,185.63
2019-03-18T07:33:01.512Z,185.63
2019-03-18T07:34:01.517Z,191.25
2019-03-18T07:35:01.525Z,196.88
2019-03-18T07:36:01.537Z,196.88
2019-03-18T07:37:01.547Z,208.13
2019-03-18T07:38:01.559Z,219.38
2019-03-18T07:39:01.568Z,230.63
2019-03-18T07:40:01.576Z,247.50
2019-03-18T07:41:01.591Z,258.75
2019-03-18T07:42:01.597Z,264.38
2019-03-18T07:43:01.609Z,275.63
2019-03-18T07:44:01.626Z,281.25
2019-03-18T07:45:01.637Z,315.00
2019-03-18T07:46:01.646Z,320.63
2019-03-18T07:47:01.647Z,337.50
2019-03-18T07:48:01.662Z,371.25
2019-03-18T07:49:01.669Z,354.38
2019-03-18T07:50:01.685Z,343.13
2019-03-18T07:51:01.691Z,326.25
2019-03-18T07:52:01.701Z,337.50
2019-03-18T07:53:01.714Z,343.13
2019-03-18T07:54:01.727Z,326.25
2019-03-18T07:55:01.732Z,343.13
2019-03-18T07:56:01.746Z,393.75
2019-03-18T07:57:01.756Z,427.50
2019-03-18T07:58:01.762Z,483.75
2019-03-18T07:59:01.774Z,511.88
2019-03-18T08:00:01.787Z,511.88
2019-03-18T08:01:01.902Z,511.88
2019-03-18T08:02:01.812Z,466.88
2019-03-18T08:03:03.451Z,450.00
2019-03-18T08:04:01.820Z,455.63
2019-03-18T08:05:01.847Z,472.50
2019-03-18T08:06:01.848Z,489.38
2019-03-18T08:07:01.860Z,528.75
2019-03-18T08:08:01.878Z,551.25
2019-03-18T08:09:01.881Z,573.75
2019-03-18T08:10:01.888Z,601.88
2019-03-18T08:11:01.900Z,579.38
2019-03-18T08:12:01.915Z,585.00
2019-03-18T08:13:01.927Z,590.63
2019-03-18T08:14:01.929Z,607.50
2019-03-18T08:15:01.948Z,585.00
2019-03-18T08:16:01.953Z,540.00
2019-03-18T08:17:01.964Z,579.38
2019-03-18T08:18:01.975Z,630.00
2019-03-18T08:19:01.991Z,613.13
2019-03-18T08:20:03.295Z,641.25
2019-03-18T08:21:02.547Z,568.13
2019-03-18T08:22:02.034Z,545.63
2019-03-18T08:23:02.111Z,551.25
2019-03-18T08:24:02.039Z,511.88
2019-03-18T08:25:02.062Z,478.13
2019-03-18T08:26:02.072Z,483.75
2019-03-18T08:27:02.206Z,590.63
2019-03-18T08:28:02.083Z,697.50
2019-03-18T08:29:02.115Z,534.38
2019-03-18T08:30:02.109Z,534.38
2019-03-18T08:31:02.242Z,669.38
2019-03-18T08:32:02.132Z,472.50
2019-03-18T08:33:02.152Z,433.13
2019-03-18T08:34:02.154Z,461.25
2019-03-18T08:35:02.226Z,506.25
2019-03-18T08:36:02.171Z,585.00
2019-03-18T08:37:02.193Z,573.75
2019-03-18T08:38:02.193Z,590.63
2019-03-18T08:39:02.216Z,585.00
2019-03-18T08:40:02.241Z,523.13
2019-03-18T08:41:02.231Z,624.38
2019-03-18T08:42:02.244Z,613.13
2019-03-18T08:43:02.254Z,596.25
2019-03-18T08:44:02.261Z,534.38
2019-03-18T08:45:02.281Z,528.75
2019-03-18T08:46:02.294Z,680.63
2019-03-18T08:47:02.301Z,708.75
2019-03-18T08:48:02.309Z,759.38
2019-03-18T08:49:02.320Z,618.75
2019-03-18T08:50:02.339Z,618.75
2019-03-18T08:51:02.343Z,765.00
2019-03-18T08:52:02.354Z,759.38
2019-03-18T08:53:02.369Z,579.38
2019-03-18T08:54:02.379Z,573.75
2019-03-18T08:55:02.387Z,714.38
2019-03-18T08:56:02.403Z,787.50
2019-03-18T08:57:02.416Z,725.63
2019-03-18T08:58:02.424Z,691.88
2019-03-18T08:59:02.440Z,624.38
2019-03-18T09:00:02.448Z,686.25
2019-03-18T09:01:02.460Z,765.00
2019-03-18T09:02:02.475Z,658.13
2019-03-18T09:03:02.496Z,551.25
2019-03-18T09:04:02.497Z,478.13
2019-03-18T09:05:02.512Z,551.25
2019-03-18T09:06:02.513Z,697.50
2019-03-18T09:07:02.527Z,883.13
2019-03-18T09:08:02.627Z,607.50
2019-03-18T09:09:02.618Z,416.25
2019-03-18T09:10:02.583Z,388.13
2019-03-18T09:11:02.575Z,382.50
2019-03-18T09:12:02.645Z,410.63
2019-03-18T09:13:02.597Z,376.88
2019-03-18T09:14:02.715Z,376.88
2019-03-18T09:15:02.620Z,405.00
2019-03-18T09:16:02.647Z,416.25
2019-03-18T09:17:02.653Z,416.25
2019-03-18T09:18:02.656Z,365.63
2019-03-18T09:19:08.641Z,371.25
2019-03-18T09:20:02.677Z,410.63
2019-03-18T09:21:02.693Z,427.50
2019-03-18T09:22:02.721Z,438.75
2019-03-18T09:23:02.717Z,410.63
2019-03-18T09:24:02.727Z,388.13
2019-03-18T09:25:02.739Z,438.75
2019-03-18T09:26:02.752Z,416.25
2019-03-18T09:27:02.924Z,416.25
2019-03-18T09:28:02.779Z,438.75
2019-03-18T09:29:02.789Z,455.63
2019-03-18T09:30:02.799Z,450.00
2019-03-18T09:31:02.811Z,461.25
2019-03-18T09:32:02.823Z,506.25
2019-03-18T09:33:02.839Z,675.00
2019-03-18T09:34:02.841Z,821.25
2019-03-18T09:35:02.859Z,973.13
2019-03-18T09:36:02.869Z,1153.13
2019-03-18T09:37:02.882Z,1164.38
2019-03-18T09:38:02.896Z,1085.63
2019-03-18T09:39:02.903Z,1096.88
2019-03-18T09:40:02.912Z,1164.38
2019-03-18T09:41:02.925Z,1102.50
2019-03-18T09:42:02.944Z,1119.38
2019-03-18T09:43:02.947Z,1153.13
2019-03-18T09:44:02.958Z,1023.75
2019-03-18T09:45:02.974Z,838.13
2019-03-18T09:46:02.985Z,984.38
2019-03-18T09:47:02.996Z,1327.50
2019-03-18T09:48:03.008Z,1237.50
2019-03-18T09:49:03.020Z,1203.75
2019-03-18T09:50:03.039Z,1085.63
2019-03-18T09:51:03.043Z,1130.63
2019-03-18T09:52:03.064Z,1288.13
2019-03-18T09:53:03.070Z,1541.25
2019-03-18T09:54:03.083Z,1811.25
2019-03-18T09:55:03.092Z,1603.13
2019-03-18T09:56:03.105Z,1704.38
2019-03-18T09:57:03.123Z,1383.75
2019-03-18T09:58:03.142Z,1383.75
2019-03-18T09:59:03.146Z,1051.88
2019-03-18T10:00:03.151Z,1192.50
2019-03-18T10:01:03.169Z,1147.50
2019-03-18T10:02:03.182Z,2266.88
2019-03-18T10:03:03.196Z,3436.88
2019-03-18T10:04:03.205Z,1445.63
2019-03-18T10:05:03.220Z,1603.13
2019-03-18T10:06:03.257Z,1805.63
2019-03-18T10:07:03.247Z,7481.25
2019-03-18T10:08:03.259Z,5343.75
2019-03-18T10:09:03.275Z,8122.50
2019-03-18T10:10:03.290Z,7548.75
2019-03-18T10:11:03.309Z,7678.13
2019-03-18T10:12:03.313Z,7526.25
2019-03-18T10:13:03.323Z,7340.63
2019-03-18T10:14:03.362Z,7115.63
2019-03-18T10:15:03.350Z,7773.75
2019-03-18T10:16:03.369Z,7312.50
2019-03-18T10:17:09.589Z,7655.63
2019-03-18T10:18:03.401Z,7413.75
2019-03-18T10:19:03.409Z,7065.00
2019-03-18T10:20:03.429Z,6969.38
2019-03-18T10:21:03.447Z,7408.13
2019-03-18T10:22:03.460Z,7481.25
2019-03-18T10:23:03.481Z,7897.50
2019-03-18T10:24:03.494Z,7768.13
2019-03-18T10:25:04.433Z,7475.63
2019-03-18T10:26:03.525Z,8246.25
2019-03-18T10:27:03.535Z,7571.25
2019-03-18T10:28:03.546Z,1361.25
2019-03-18T10:29:03.568Z,3543.75
2019-03-18T10:30:03.586Z,7993.13
2019-03-18T10:31:03.607Z,1170.00
2019-03-18T10:32:03.616Z,1158.75
2019-03-18T10:33:03.635Z,6575.63
2019-03-18T10:34:03.650Z,4128.75
2019-03-18T10:35:03.663Z,1591.88
2019-03-18T10:36:03.675Z,7807.50
2019-03-18T10:37:03.695Z,7740.00
2019-03-18T10:38:03.709Z,6266.25
2019-03-18T10:39:03.729Z,8133.75
2019-03-18T10:40:03.749Z,8578.13
2019-03-18T10:41:03.759Z,7773.75
2019-03-18T10:42:03.778Z,1265.63
2019-03-18T10:43:03.792Z,759.38
2019-03-18T10:44:03.813Z,922.50
2019-03-18T10:45:03.821Z,8055.00
2019-03-18T10:46:03.849Z,8060.63
2019-03-18T10:47:03.862Z,1136.25
2019-03-18T10:48:03.888Z,714.38
2019-03-18T10:49:03.889Z,1316.25
2019-03-18T10:50:03.905Z,562.50
2019-03-18T10:51:03.918Z,545.63
2019-03-18T10:52:03.973Z,568.13
2019-03-18T10:53:03.989Z,596.25
2019-03-18T10:54:03.964Z,731.25
2019-03-18T10:55:03.981Z,1130.63
2019-03-18T10:56:07.980Z,2041.88
2019-03-18T10:57:04.017Z,1051.88
2019-03-18T10:58:04.029Z,4286.25
2019-03-18T10:59:04.039Z,7633.13
2019-03-18T11:00:04.048Z,1445.63
2019-03-18T11:01:04.074Z,1001.25
2019-03-18T11:02:04.080Z,6356.25
2019-03-18T11:03:04.115Z,8060.63
2019-03-18T11:04:04.111Z,1029.38
2019-03-18T11:05:04.154Z,961.88
2019-03-18T11:06:04.138Z,7785.00
2019-03-18T11:07:04.153Z,6581.25
2019-03-18T11:08:04.167Z,3375.00
2019-03-18T11:09:04.185Z,7323.75
2019-03-18T11:10:04.197Z,7824.38
2019-03-18T11:11:04.215Z,8100.00
2019-03-18T11:12:04.254Z,2908.13
2019-03-18T11:13:04.245Z,3346.88
2019-03-18T11:14:04.266Z,1428.75
2019-03-18T11:15:04.276Z,933.75
2019-03-18T11:16:04.289Z,781.88
2019-03-18T11:17:04.308Z,765.00
2019-03-18T11:18:04.339Z,810.00
2019-03-18T11:19:04.343Z,675.00
2019-03-18T11:20:04.354Z,703.13
2019-03-18T11:21:04.369Z,911.25
2019-03-18T11:22:04.382Z,1833.75
2019-03-18T11:23:04.395Z,1648.13
2019-03-18T11:24:04.416Z,1586.25
2019-03-18T11:25:04.424Z,5956.88
2019-03-18T11:26:04.450Z,1558.13
2019-03-18T11:27:04.454Z,6665.63
2019-03-18T11:28:04.474Z,2430.00
2019-03-18T11:29:05.802Z,6907.50
2019-03-18T11:30:04.502Z,7560.00
2019-03-18T11:31:04.520Z,7042.50
2019-03-18T11:32:04.534Z,4820.63
2019-03-18T11:33:04.542Z,1209.38
2019-03-18T11:34:04.562Z,871.88
2019-03-18T11:35:04.570Z,720.00
2019-03-18T11:36:04.593Z,568.13
2019-03-18T11:37:04.615Z,466.88
2019-03-18T11:38:04.610Z,427.50
2019-03-18T11:39:04.641Z,354.38
2019-03-18T11:40:04.645Z,298.13
2019-03-18T11:41:04.665Z,247.50
2019-03-18T11:42:04.686Z,219.38
2019-03-18T11:43:04.694Z,185.63
2019-03-18T11:44:04.854Z,174.38
2019-03-18T11:45:04.727Z,168.75
2019-03-18T11:46:04.858Z,174.38
2019-03-18T11:47:04.753Z,185.63
2019-03-18T11:48:04.775Z,219.38
2019-03-18T11:49:04.778Z,225.00
2019-03-18T11:50:10.886Z,253.13
2019-03-18T11:51:04.805Z,241.88
2019-03-18T11:52:04.890Z,236.25
2019-03-18T11:53:13.704Z,196.88
2019-03-18T11:54:04.855Z,213.75
2019-03-18T11:55:05.044Z,275.63
2019-03-18T11:56:04.873Z,388.13
2019-03-18T11:57:04.892Z,450.00
2019-03-18T11:58:04.901Z,461.25
2019-03-18T11:59:04.916Z,438.75
2019-03-18T12:00:04.930Z,686.25
2019-03-18T12:01:04.939Z,523.13
2019-03-18T12:02:04.950Z,517.50
2019-03-18T12:03:04.963Z,506.25
2019-03-18T12:04:04.977Z,590.63
2019-03-18T12:05:04.989Z,6390.00
2019-03-18T12:06:04.999Z,686.25
2019-03-18T12:07:05.014Z,596.25
2019-03-18T12:08:05.023Z,585.00
2019-03-18T12:09:05.056Z,556.88
2019-03-18T12:10:05.049Z,596.25
2019-03-18T12:11:05.057Z,736.88
2019-03-18T12:12:05.069Z,894.38
2019-03-18T12:13:05.087Z,984.38
2019-03-18T12:14:05.098Z,922.50
2019-03-18T12:15:05.108Z,871.88
2019-03-18T12:16:05.122Z,1524.38
2019-03-18T12:17:05.138Z,3420.00
2019-03-18T12:18:05.149Z,1046.25
2019-03-18T12:19:05.158Z,911.25
2019-03-18T12:20:05.170Z,1108.13
2019-03-18T12:21:05.182Z,2154.38
2019-03-18T12:22:05.198Z,3386.25
2019-03-18T12:23:05.210Z,1411.88
2019-03-18T12:24:05.222Z,1299.38
2019-03-18T12:25:05.234Z,1440.00
2019-03-18T12:26:05.246Z,3408.75
2019-03-18T12:27:05.257Z,1423.13
2019-03-18T12:28:05.698Z,1057.50
2019-03-18T12:29:05.289Z,1102.50
2019-03-18T12:30:05.314Z,1119.38
2019-03-18T12:31:05.316Z,1074.38
2019-03-18T12:32:05.329Z,1513.13
2019-03-18T12:33:05.339Z,4882.50
2019-03-18T12:34:05.352Z,1642.50
2019-03-18T12:35:05.367Z,5636.25
2019-03-18T12:36:05.395Z,7222.50
2019-03-18T12:37:05.394Z,4826.25
2019-03-18T12:38:05.413Z,4545.00
2019-03-18T12:39:05.463Z,6946.88
2019-03-18T12:40:05.509Z,6412.50
2019-03-18T12:41:05.451Z,7841.25
2019-03-18T12:42:05.470Z,4410.00
2019-03-18T12:43:05.483Z,4781.25
2019-03-18T12:44:05.506Z,4573.13
2019-03-18T12:45:08.574Z,4770.00
2019-03-18T12:46:05.539Z,6255.00
2019-03-18T12:47:05.547Z,4691.25
2019-03-18T12:48:05.560Z,4741.88
2019-03-18T12:49:05.589Z,4584.38